createdAt,value
2019-05-10T00:00:26.819Z,39.50
2019-05-10T00:03:11.559Z,40.03
2019-05-10T00:05:56.167Z,42.27
2019-05-10T00:08:41.033Z,39.47
2019-05-10T00:11:27.307Z,39.13
2019-05-10T00:14:10.885Z,39.10
2019-05-10T00:16:37.269Z,42.00
2019-05-10T00:19:04.741Z,45.43
2019-05-10T00:21:31.149Z,55.53
2019-05-10T00:23:57.480Z,36.13
2019-05-10T00:26:23.829Z,32.77
2019-05-10T00:28:50.151Z,36.30
2019-05-10T00:31:16.519Z,36.77
2019-05-10T00:33:42.916Z,35.83
2019-05-10T00:36:09.326Z,44.03
2019-05-10T00:38:36.874Z,44.80
2019-05-10T00:41:03.273Z,42.57
2019-05-10T00:43:29.563Z,41.67
2019-05-10T00:45:55.884Z,42.83
2019-05-10T00:48:23.391Z,45.77
2019-05-10T00:50:49.694Z,42.97
2019-05-10T00:53:16.116Z,38.20
2019-05-10T00:55:45.086Z,32.93
2019-05-10T00:58:11.515Z,31.97
2019-05-10T01:00:37.844Z,27.53
2019-05-10T01:03:04.216Z,32.97
2019-05-10T01:05:30.604Z,38.27
2019-05-10T01:07:56.961Z,41.47
2019-05-10T01:10:23.384Z,38.53
2019-05-10T01:12:49.798Z,31.57
2019-05-10T01:15:16.451Z,31.23
2019-05-10T01:17:42.834Z,29.00
2019-05-10T01:20:09.408Z,27.40
2019-05-10T01:22:35.721Z,26.10
2019-05-10T01:25:05.513Z,24.33
2019-05-10T01:27:31.852Z,26.43
2019-05-10T01:29:58.261Z,25.53
2019-05-10T01:32:24.666Z,25.87
2019-05-10T01:34:51.087Z,28.03
2019-05-10T01:37:17.511Z,31.60
2019-05-10T01:39:43.859Z,30.87
2019-05-10T01:42:10.217Z,35.27
2019-05-10T01:44:36.622Z,39.70
2019-05-10T01:47:03.050Z,53.00
2019-05-10T01:49:29.432Z,52.40
2019-05-10T01:51:55.746Z,53.17
2019-05-10T01:54:22.138Z,53.90
2019-05-10T01:56:48.529Z,52.20
2019-05-10T01:59:14.855Z,49.50
2019-05-10T02:01:42.345Z,47.13
2019-05-10T02:04:08.695Z,49.47
2019-05-10T02:06:35.065Z,46.80
2019-05-10T02:09:01.395Z,46.37
2019-05-10T02:11:27.960Z,45.67
2019-05-10T02:13:54.271Z,40.67
2019-05-10T02:16:21.473Z,46.03
2019-05-10T02:18:47.777Z,49.80
2019-05-10T02:21:14.148Z,46.27
2019-05-10T02:23:40.475Z,46.47
2019-05-10T02:26:09.479Z,47.60
2019-05-10T02:28:35.262Z,49.87
2019-05-10T02:31:01.844Z,44.67
2019-05-10T02:33:28.179Z,45.43
2019-05-10T02:35:54.550Z,45.83
2019-05-10T02:38:20.891Z,48.43
2019-05-10T02:40:47.298Z,51.13
2019-05-10T02:43:13.652Z,49.73
2019-05-10T02:45:40.038Z,49.53
2019-05-10T02:48:06.403Z,46.43
2019-05-10T02:50:32.773Z,46.63
2019-05-10T02:52:59.112Z,50.07
2019-05-10T02:55:25.767Z,47.73
2019-05-10T02:57:53.228Z,47.57
2019-05-10T03:00:19.767Z,47.03
2019-05-10T03:02:46.939Z,45.73
2019-05-10T03:05:13.556Z,46.47
2019-05-10T03:07:39.936Z,49.50
2019-05-10T03:10:09.136Z,46.70
2019-05-10T03:12:38.360Z,45.43
2019-05-10T03:15:05.006Z,45.23
2019-05-10T03:17:31.367Z,43.90
2019-05-10T03:19:58.978Z,46.53
2019-05-10T03:22:25.604Z,45.23
2019-05-10T03:24:52.237Z,43.53
2019-05-10T03:27:18.587Z,43.57
2019-05-10T03:29:45.358Z,41.97
2019-05-10T03:32:11.758Z,43.77
2019-05-10T03:34:38.056Z,45.10
2019-05-10T03:37:04.493Z,41.80
2019-05-10T03:39:30.822Z,43.80
2019-05-10T03:41:57.199Z,45.03
2019-05-10T03:44:23.510Z,39.70
2019-05-10T03:46:49.875Z,41.80
2019-05-10T03:49:16.247Z,43.50
2019-05-10T03:51:42.650Z,40.23
2019-05-10T03:54:09.025Z,42.87
2019-05-10T03:56:35.390Z,43.80
2019-05-10T03:59:01.793Z,44.63
2019-05-10T04:01:28.145Z,42.27
2019-05-10T04:03:54.540Z,44.97
2019-05-10T04:06:20.972Z,42.17
2019-05-10T04:08:47.297Z,43.33
2019-05-10T04:11:13.692Z,41.97
2019-05-10T04:13:40.401Z,56.47
2019-05-10T04:16:06.815Z,38.97
2019-05-10T04:18:33.174Z,43.70
2019-05-10T04:20:59.547Z,39.97
2019-05-10T04:23:25.914Z,42.73
2019-05-10T04:25:52.340Z,38.13
2019-05-10T04:28:18.658Z,44.33
2019-05-10T04:30:45.534Z,39.07
2019-05-10T04:33:11.873Z,38.47
2019-05-10T04:35:38.277Z,42.40
2019-05-10T04:38:04.627Z,46.87
2019-05-10T04:40:30.966Z,38.87
2019-05-10T04:42:57.300Z,39.90
2019-05-10T04:45:23.647Z,39.10
2019-05-10T04:47:50.008Z,40.57
2019-05-10T04:50:16.469Z,38.17
2019-05-10T04:52:42.872Z,37.70
2019-05-10T04:55:09.437Z,37.90
2019-05-10T04:57:49.188Z,37.97
2019-05-10T05:00:08.202Z,32.80
2019-05-10T05:02:34.636Z,33.87
2019-05-10T05:05:01.029Z,34.57
2019-05-10T05:07:28.753Z,33.43
2019-05-10T05:09:55.198Z,34.07
2019-05-10T05:12:21.701Z,33.03
2019-05-10T05:14:48.062Z,35.27
2019-05-10T05:17:14.492Z,36.07
2019-05-10T05:19:41.146Z,33.97
2019-05-10T05:22:07.611Z,33.57
2019-05-10T05:24:34.031Z,33.77
2019-05-10T05:27:00.400Z,34.50
2019-05-10T05:29:26.836Z,33.40
2019-05-10T05:31:54.161Z,33.40
2019-05-10T05:34:21.405Z,32.10
2019-05-10T05:36:47.716Z,33.43
2019-05-10T05:39:14.312Z,31.63
2019-05-10T05:41:48.752Z,33.23
2019-05-10T05:44:09.316Z,31.47
2019-05-10T05:46:35.712Z,32.93
2019-05-10T05:49:02.110Z,37.80
2019-05-10T05:51:28.479Z,33.97
2019-05-10T05:53:54.818Z,31.83
2019-05-10T05:56:21.284Z,32.97
2019-05-10T05:58:48.787Z,35.83
2019-05-10T06:01:24.946Z,35.87
2019-05-10T06:03:43.915Z,37.50
2019-05-10T06:06:21.796Z,37.33
2019-05-10T06:08:38.538Z,35.43
2019-05-10T06:11:08.642Z,36.80
2019-05-10T06:13:33.097Z,35.33
2019-05-10T06:16:00.583Z,36.13
2019-05-10T06:18:27.794Z,35.43
2019-05-10T06:20:54.196Z,41.40
2019-05-10T06:23:20.602Z,47.13
2019-05-10T06:25:47.086Z,48.47
2019-05-10T06:28:26.309Z,42.43
2019-05-10T06:30:41.581Z,41.20
2019-05-10T06:33:12.592Z,39.40
2019-05-10T06:35:36.151Z,44.83
2019-05-10T06:38:02.595Z,45.27
2019-05-10T06:40:35.588Z,42.20
2019-05-10T06:42:57.313Z,46.10
2019-05-10T06:45:23.706Z,53.27
2019-05-10T06:47:53.295Z,63.40
2019-05-10T06:50:28.843Z,56.90
2019-05-10T06:52:46.937Z,44.70
2019-05-10T06:55:13.341Z,44.37
2019-05-10T06:57:39.761Z,43.33
2019-05-10T07:00:08.090Z,41.67
2019-05-10T07:02:34.620Z,43.47
2019-05-10T07:05:01.088Z,41.53
2019-05-10T07:07:43.410Z,41.87
2019-05-10T07:10:10.348Z,46.17
2019-05-10T07:12:23.755Z,47.43
2019-05-10T07:14:50.160Z,48.83
2019-05-10T07:17:16.491Z,44.17
2019-05-10T07:19:53.222Z,44.10
2019-05-10T07:22:12.170Z,44.43
2019-05-10T07:24:38.554Z,41.53
2019-05-10T07:27:05.848Z,40.73
2019-05-10T07:29:41.774Z,39.43
2019-05-10T07:32:00.816Z,39.03
2019-05-10T07:34:27.976Z,36.23
2019-05-10T07:36:54.466Z,39.37
2019-05-10T07:39:20.791Z,34.97
2019-05-10T07:41:47.248Z,35.67
2019-05-10T07:44:13.583Z,36.07
2019-05-10T07:46:46.954Z,34.83
2019-05-10T07:49:08.265Z,33.83
2019-05-10T07:51:34.743Z,32.37
2019-05-10T07:54:04.635Z,34.40
2019-05-10T07:56:30.599Z,32.30
2019-05-10T07:59:00.479Z,31.87
2019-05-10T08:01:32.373Z,34.07
2019-05-10T08:03:53.894Z,32.70
2019-05-10T08:06:20.211Z,29.93
2019-05-10T08:08:49.693Z,28.30
2019-05-10T08:11:19.111Z,27.70
2019-05-10T08:13:45.474Z,25.40
2019-05-10T08:16:19.437Z,24.98
2019-05-10T08:18:42.389Z,24.12
2019-05-10T08:21:20.837Z,25.80
2019-05-10T08:23:36.798Z,27.02
2019-05-10T08:26:04.670Z,25.08
2019-05-10T08:28:34.160Z,24.75
2019-05-10T08:30:59.335Z,24.77
2019-05-10T08:33:25.747Z,23.73
2019-05-10T08:36:00.545Z,22.82
2019-05-10T08:38:21.989Z,25.52
2019-05-10T08:40:49.208Z,25.77
2019-05-10T08:43:16.789Z,26.23
2019-05-10T08:45:44.855Z,27.00
2019-05-10T08:48:13.112Z,28.47
2019-05-10T08:50:50.615Z,28.98
2019-05-10T08:53:10.723Z,27.65
2019-05-10T08:55:36.079Z,30.02
2019-05-10T08:58:03.006Z,32.83
2019-05-10T09:00:45.134Z,32.10
2019-05-10T09:03:00.930Z,36.70
2019-05-10T09:05:29.160Z,34.27
2019-05-10T09:07:53.854Z,33.20
2019-05-10T09:10:22.095Z,35.00
2019-05-10T09:12:54.267Z,32.17
2019-05-10T09:15:17.025Z,28.98
2019-05-10T09:17:43.495Z,27.32
2019-05-10T09:20:13.337Z,27.07
2019-05-10T09:22:38.854Z,25.20
2019-05-10T09:25:05.412Z,20.10
2019-05-10T09:27:33.455Z,21.30
2019-05-10T09:29:59.994Z,22.10
2019-05-10T09:32:29.149Z,21.15
2019-05-10T09:34:59.829Z,22.17
2019-05-10T09:37:24.592Z,23.40
2019-05-10T09:39:54.936Z,24.32
2019-05-10T09:42:26.889Z,26.90
2019-05-10T09:44:47.320Z,24.32
2019-05-10T09:47:13.787Z,22.60
2019-05-10T09:49:44.984Z,27.17
2019-05-10T09:52:12.769Z,22.05
2019-05-10T09:54:38.080Z,25.88
2019-05-10T09:57:04.561Z,20.32
2019-05-10T09:59:31.074Z,19.48
2019-05-10T10:01:57.441Z,23.62
2019-05-10T10:04:23.825Z,20.23
2019-05-10T10:06:52.642Z,19.12
2019-05-10T10:09:18.492Z,15.20
2019-05-10T10:11:56.745Z,16.35
2019-05-10T10:14:14.217Z,16.45
2019-05-10T10:16:40.600Z,20.43
2019-05-10T10:19:07.270Z,18.23
2019-05-10T10:21:35.450Z,14.85
2019-05-10T10:24:12.760Z,12.73
2019-05-10T10:26:31.585Z,14.38
2019-05-10T10:29:00.109Z,14.98
2019-05-10T10:31:32.585Z,15.23
2019-05-10T10:33:58.002Z,14.60
2019-05-10T10:36:22.440Z,13.48
2019-05-10T10:38:49.650Z,13.85
2019-05-10T10:41:17.140Z,12.50
2019-05-10T10:43:44.470Z,12.33
2019-05-10T10:46:12.445Z,13.38
2019-05-10T10:48:43.620Z,11.35
2019-05-10T10:51:08.073Z,11.15
2019-05-10T10:53:34.624Z,12.68
2019-05-10T10:56:03.817Z,14.98
2019-05-10T10:58:29.223Z,15.72
2019-05-10T11:00:55.592Z,18.07
2019-05-10T11:03:24.018Z,19.07
2019-05-10T11:05:50.316Z,19.93
2019-05-10T11:08:16.640Z,18.90
2019-05-10T11:10:43.157Z,19.67
2019-05-10T11:13:17.855Z,14.90
2019-05-10T11:15:37.864Z,14.57
2019-05-10T11:18:04.322Z,14.78
2019-05-10T11:20:31.763Z,13.03
2019-05-10T11:22:59.479Z,14.13
2019-05-10T11:25:25.819Z,14.43
2019-05-10T11:27:56.403Z,15.45
2019-05-10T11:30:21.455Z,14.93
2019-05-10T11:32:47.980Z,14.47
2019-05-10T11:35:18.983Z,13.22
2019-05-10T11:37:45.549Z,13.75
2019-05-10T11:40:11.491Z,12.20
2019-05-10T11:42:43.791Z,11.43
2019-05-10T11:45:06.622Z,14.10
2019-05-10T11:47:32.957Z,14.67
2019-05-10T11:50:05.812Z,12.37
2019-05-10T11:52:29.246Z,13.73
2019-05-10T11:54:56.829Z,13.23
2019-05-10T11:57:24.168Z,12.53
2019-05-10T11:59:51.605Z,12.67
2019-05-10T12:02:35.338Z,11.50
2019-05-10T12:04:46.322Z,11.60
2019-05-10T12:07:13.134Z,12.37
2019-05-10T12:09:42.551Z,10.60
2019-05-10T12:12:07.735Z,10.30
2019-05-10T12:14:34.176Z,11.10
2019-05-10T12:17:06.490Z,9.57
2019-05-10T12:19:36.765Z,9.07
2019-05-10T12:22:03.575Z,9.13
2019-05-10T12:24:45.217Z,9.90
2019-05-10T12:29:24.633Z,8.27
2019-05-10T12:31:55.149Z,6.40
2019-05-10T12:34:20.739Z,5.30
2019-05-10T12:36:47.379Z,6.30
2019-05-10T12:39:13.808Z,7.07
2019-05-10T12:41:48.420Z,6.30
2019-05-10T12:44:08.456Z,7.13
2019-05-10T12:46:38.455Z,5.17
2019-05-10T12:49:04.902Z,7.83
2019-05-10T12:51:31.433Z,6.23
2019-05-10T12:53:57.776Z,5.67
2019-05-10T12:56:24.535Z,4.93
2019-05-10T12:58:56.595Z,4.87
2019-05-10T13:01:25.491Z,6.30
2019-05-10T13:03:48.924Z,6.53
2019-05-10T13:06:19.487Z,5.87
2019-05-10T13:08:44.365Z,4.10
2019-05-10T13:11:11.573Z,4.17
2019-05-10T13:13:38.591Z,3.90
2019-05-10T13:16:09.615Z,3.97
2019-05-10T13:18:49.676Z,4.37
2019-05-10T13:21:02.387Z,4.73
2019-05-10T13:23:28.955Z,3.77
2019-05-10T13:25:55.748Z,4.13
2019-05-10T13:28:22.494Z,4.53
2019-05-10T13:30:49.248Z,4.23
2019-05-10T13:33:28.042Z,3.80
2019-05-10T13:35:43.863Z,4.00
2019-05-10T13:38:11.471Z,3.77
2019-05-10T13:40:45.290Z,3.40
2019-05-10T13:43:07.153Z,3.20
2019-05-10T13:45:37.687Z,2.80
2019-05-10T13:48:02.459Z,7.67
2019-05-10T13:50:28.882Z,7.10
2019-05-10T13:52:55.206Z,4.33
2019-05-10T13:55:21.636Z,5.27
2019-05-10T13:57:48.539Z,5.60
2019-05-10T14:00:15.853Z,14.23
2019-05-10T14:02:42.247Z,11.93
2019-05-10T14:05:11.793Z,6.37
2019-05-10T14:07:37.800Z,4.93
2019-05-10T14:10:04.591Z,3.73
2019-05-10T14:12:30.989Z,3.60
2019-05-10T14:15:02.409Z,3.47
2019-05-10T14:17:25.753Z,3.40
2019-05-10T14:19:53.297Z,4.03
2019-05-10T14:22:19.699Z,3.67
2019-05-10T14:24:53.534Z,3.47
2019-05-10T14:27:15.404Z,4.23
2019-05-10T14:29:42.049Z,4.80
2019-05-10T14:32:08.676Z,5.83
2019-05-10T14:34:38.011Z,5.23
2019-05-10T14:37:03.345Z,5.73
2019-05-10T14:39:29.800Z,5.40
2019-05-10T14:41:56.229Z,4.63
2019-05-10T14:44:22.691Z,4.67
2019-05-10T14:46:49.081Z,3.80
2019-05-10T14:49:15.513Z,5.27
2019-05-10T14:51:57.852Z,4.70
2019-05-10T14:54:10.226Z,5.10
2019-05-10T14:56:36.611Z,4.37
2019-05-10T14:59:02.991Z,4.70
2019-05-10T15:01:29.348Z,4.77
2019-05-10T15:03:55.697Z,4.50
2019-05-10T15:06:22.104Z,3.83
2019-05-10T15:08:48.554Z,3.63
2019-05-10T15:11:14.904Z,3.93
2019-05-10T15:13:41.287Z,3.40
2019-05-10T15:16:12.652Z,3.40
2019-05-10T15:18:35.858Z,4.90
2019-05-10T15:21:02.366Z,11.80
2019-05-10T15:23:28.775Z,16.77
2019-05-10T15:25:57.466Z,17.10
2019-05-10T15:28:23.283Z,14.83
2019-05-10T15:30:52.620Z,17.50
2019-05-10T15:33:17.830Z,4.27
2019-05-10T15:35:45.599Z,28.60
2019-05-10T15:38:12.377Z,67.23
2019-05-10T15:40:44.283Z,27.23
2019-05-10T15:43:10.553Z,16.00
2019-05-10T15:45:35.082Z,10.27
2019-05-10T15:48:03.018Z,5.40
2019-05-10T15:50:32.630Z,3.53
2019-05-10T15:52:57.879Z,4.10
2019-05-10T15:55:27.252Z,5.10
2019-05-10T15:57:57.583Z,5.10
2019-05-10T16:00:25.094Z,3.57
2019-05-10T16:02:53.029Z,3.67
2019-05-10T16:05:25.866Z,3.77
2019-05-10T16:07:46.425Z,3.37
2019-05-10T16:10:13.945Z,4.07
2019-05-10T16:12:43.221Z,3.60
2019-05-10T16:15:13.941Z,4.13
2019-05-10T16:17:37.919Z,3.00
2019-05-10T16:20:05.478Z,8.37
2019-05-10T16:22:32.089Z,6.17
2019-05-10T16:25:02.536Z,13.03
2019-05-10T16:27:26.822Z,23.90
2019-05-10T16:29:53.283Z,18.07
2019-05-10T16:32:19.627Z,7.67
2019-05-10T16:34:46.043Z,7.87
2019-05-10T16:37:12.394Z,11.27
2019-05-10T16:39:38.836Z,9.93
2019-05-10T16:42:05.233Z,13.50
2019-05-10T16:44:31.614Z,13.93
2019-05-10T16:46:58.027Z,15.87
2019-05-10T16:49:24.428Z,15.77
2019-05-10T16:51:50.832Z,13.33
2019-05-10T16:54:24.603Z,11.93
2019-05-10T16:56:46.511Z,26.57
2019-05-10T16:59:13.071Z,15.93
2019-05-10T17:01:39.399Z,9.63
2019-05-10T17:04:05.789Z,10.67
2019-05-10T17:06:35.461Z,8.80
2019-05-10T17:09:00.498Z,16.77
2019-05-10T17:11:26.897Z,19.13
2019-05-10T17:13:55.706Z,20.70
2019-05-10T17:16:22.368Z,10.87
2019-05-10T17:18:55.169Z,11.37
2019-05-10T17:21:17.138Z,50.70
2019-05-10T17:23:46.696Z,37.17
2019-05-10T17:26:11.710Z,13.47
2019-05-10T17:28:38.090Z,7.37
2019-05-10T17:31:07.923Z,7.27
2019-05-10T17:33:36.794Z,9.37
2019-05-10T17:36:08.298Z,10.10
2019-05-10T17:38:31.725Z,13.87
2019-05-10T17:40:57.313Z,15.43
2019-05-10T17:43:23.746Z,18.27
2019-05-10T17:45:50.140Z,37.57
2019-05-10T17:48:16.581Z,43.27
2019-05-10T17:50:45.567Z,23.07
2019-05-10T17:53:11.289Z,24.17
2019-05-10T17:55:37.690Z,22.53
2019-05-10T17:58:04.080Z,17.93
2019-05-10T18:00:30.506Z,19.87
2019-05-10T18:02:56.918Z,14.07
2019-05-10T18:05:23.273Z,11.77
2019-05-10T18:07:49.658Z,12.77
2019-05-10T18:10:16.045Z,12.20
2019-05-10T18:12:42.488Z,11.27
2019-05-10T18:15:09.383Z,11.37
2019-05-10T18:17:35.777Z,9.90
2019-05-10T18:20:04.026Z,10.77
2019-05-10T18:22:35.840Z,12.47
2019-05-10T18:24:58.895Z,15.70
2019-05-10T18:27:25.281Z,20.53
2019-05-10T18:29:51.765Z,18.67
2019-05-10T18:32:18.261Z,13.83
2019-05-10T18:34:47.202Z,10.70
2019-05-10T18:37:15.903Z,12.47
2019-05-10T18:39:42.029Z,13.10
2019-05-10T18:42:08.474Z,9.10
2019-05-10T18:44:34.882Z,8.87
2019-05-10T18:47:01.281Z,7.50
2019-05-10T18:49:27.648Z,7.93
2019-05-10T18:52:03.546Z,6.73
2019-05-10T18:54:22.328Z,10.27
2019-05-10T18:56:48.720Z,9.43
2019-05-10T18:59:15.119Z,10.27
2019-05-10T19:01:41.541Z,10.47
2019-05-10T19:04:14.222Z,10.03
2019-05-10T19:06:36.147Z,7.90
2019-05-10T19:09:05.554Z,6.80
2019-05-10T19:11:33.097Z,7.33
2019-05-10T19:14:00.715Z,6.83
2019-05-10T19:16:32.029Z,6.50
2019-05-10T19:19:01.821Z,6.90
2019-05-10T19:21:30.687Z,6.43
2019-05-10T19:23:54.390Z,6.37
2019-05-10T19:26:23.840Z,7.43
2019-05-10T19:28:49.657Z,8.10
2019-05-10T19:31:16.079Z,6.07
2019-05-10T19:33:42.469Z,6.30
2019-05-10T19:36:13.092Z,7.17
2019-05-10T19:38:37.192Z,7.53
2019-05-10T19:41:03.620Z,11.17
2019-05-10T19:43:30.194Z,11.77
2019-05-10T19:45:58.078Z,17.97
2019-05-10T19:48:29.247Z,10.23
2019-05-10T19:50:54.459Z,8.67
2019-05-10T19:53:20.906Z,7.80
2019-05-10T19:55:51.365Z,7.27
2019-05-10T19:58:15.576Z,7.70
2019-05-10T20:00:41.979Z,10.03
2019-05-10T20:03:08.404Z,12.13
2019-05-10T20:05:34.829Z,11.13
2019-05-10T20:08:01.270Z,10.77
2019-05-10T20:10:27.675Z,10.13
2019-05-10T20:12:54.101Z,13.07
2019-05-10T20:15:20.464Z,18.13
2019-05-10T20:17:47.111Z,19.53
2019-05-10T20:20:13.728Z,20.47
2019-05-10T20:22:40.130Z,17.27
2019-05-10T20:25:08.352Z,15.23
2019-05-10T20:27:34.835Z,14.47
2019-05-10T20:30:01.309Z,13.50
2019-05-10T20:32:27.734Z,13.50
2019-05-10T20:34:54.259Z,10.23
2019-05-10T20:37:20.695Z,8.57
2019-05-10T20:39:47.113Z,8.47
2019-05-10T20:42:13.511Z,9.87
2019-05-10T20:44:39.980Z,9.17
2019-05-10T20:47:06.418Z,8.73
2019-05-10T20:49:32.897Z,10.20
2019-05-10T20:51:59.418Z,9.93
2019-05-10T20:54:25.945Z,10.93
2019-05-10T20:56:52.922Z,10.40
2019-05-10T20:59:19.476Z,11.43
2019-05-10T21:01:45.869Z,10.63
2019-05-10T21:04:12.775Z,10.07
2019-05-10T21:06:39.134Z,14.00
2019-05-10T21:09:05.861Z,14.73
2019-05-10T21:11:32.506Z,11.77
2019-05-10T21:13:58.967Z,12.93
2019-05-10T21:16:25.281Z,11.90
2019-05-10T21:18:51.695Z,10.87
2019-05-10T21:21:18.122Z,10.17
2019-05-10T21:23:44.610Z,10.90
2019-05-10T21:26:11.053Z,10.50
2019-05-10T21:28:37.459Z,9.80
2019-05-10T21:31:04.106Z,9.93
2019-05-10T21:33:30.554Z,11.20
2019-05-10T21:35:57.009Z,20.17
2019-05-10T21:38:32.445Z,13.87
2019-05-10T21:40:52.921Z,11.70
2019-05-10T21:43:19.406Z,11.70
2019-05-10T21:45:46.952Z,11.73
2019-05-10T21:48:13.465Z,10.93
2019-05-10T21:50:40.110Z,10.47
2019-05-10T21:53:06.674Z,14.20
2019-05-10T21:55:33.318Z,15.37
2019-05-10T21:57:59.856Z,14.90
2019-05-10T22:00:28.357Z,15.20
2019-05-10T22:02:56.651Z,20.97
2019-05-10T22:05:23.247Z,30.23
2019-05-10T22:07:49.834Z,19.77
2019-05-10T22:10:16.251Z,21.37
2019-05-10T22:12:42.720Z,23.60
2019-05-10T22:15:09.560Z,25.70
2019-05-10T22:17:36.338Z,27.07
2019-05-10T22:20:05.383Z,28.60
2019-05-10T22:22:31.992Z,24.50
2019-05-10T22:24:58.685Z,35.83
2019-05-10T22:27:25.277Z,34.60
2019-05-10T22:29:51.718Z,24.87
2019-05-10T22:32:18.174Z,23.73
2019-05-10T22:34:44.744Z,26.67
2019-05-10T22:37:11.263Z,26.70
2019-05-10T22:39:37.714Z,24.60
2019-05-10T22:42:04.466Z,26.67
2019-05-10T22:44:32.063Z,20.97
2019-05-10T22:46:58.595Z,20.80
2019-05-10T22:49:25.365Z,20.80
2019-05-10T22:51:51.979Z,20.00
2019-05-10T22:54:18.511Z,22.63
2019-05-10T22:56:45.041Z,23.07
2019-05-10T22:59:11.527Z,21.43
2019-05-10T23:01:37.919Z,23.23
2019-05-10T23:04:04.414Z,21.03
2019-05-10T23:06:30.786Z,21.03
2019-05-10T23:08:57.426Z,21.13
2019-05-10T23:11:23.802Z,24.63
2019-05-10T23:13:50.295Z,28.20
2019-05-10T23:16:16.644Z,38.30
2019-05-10T23:18:43.273Z,30.80
2019-05-10T23:21:09.724Z,26.67
2019-05-10T23:23:36.143Z,24.30
2019-05-10T23:26:02.629Z,22.77
2019-05-10T23:28:29.088Z,21.00
2019-05-10T23:30:55.485Z,18.27
2019-05-10T23:33:21.978Z,16.53
2019-05-10T23:35:48.564Z,14.50
2019-05-10T23:38:14.974Z,14.87
2019-05-10T23:40:41.458Z,15.47
2019-05-10T23:43:07.851Z,16.17
2019-05-10T23:45:34.426Z,15.40
2019-05-10T23:48:00.929Z,15.83
2019-05-10T23:50:27.592Z,16.57
2019-05-10T23:52:54.032Z,17.50
2019-05-10T23:55:20.529Z,18.00
2019-05-10T23:57:47.014Z,17.00
